createdAt,value
2023-04-29T00:00:04.876Z,20.6241
2023-04-29T00:01:06.496Z,20.6165
2023-04-29T00:02:08.161Z,20.5994
2023-04-29T00:03:10.260Z,20.5770
2023-04-29T00:04:11.780Z,20.5698
2023-04-29T00:05:13.320Z,20.5854
2023-04-29T00:06:14.945Z,20.6043
2023-04-29T00:07:16.358Z,20.6315
2023-04-29T00:08:18.033Z,20.6675
2023-04-29T00:09:19.647Z,20.6874
2023-04-29T00:10:21.277Z,20.6782
2023-04-29T00:11:22.958Z,20.6690
2023-04-29T00:12:24.615Z,20.6454
2023-04-29T00:13:26.297Z,20.6173
2023-04-29T00:14:27.891Z,20.6076
2023-04-29T00:15:29.583Z,20.5993
2023-04-29T00:16:31.223Z,20.5858
2023-04-29T00:17:32.912Z,20.5784
2023-04-29T00:18:34.472Z,20.5727
2023-04-29T00:19:36.114Z,20.5596
2023-04-29T00:20:37.829Z,20.5636
2023-04-29T00:21:39.376Z,20.5688
2023-04-29T00:22:41.055Z,20.5881
2023-04-29T00:23:42.753Z,20.6398
2023-04-29T00:24:44.628Z,20.6844
2023-04-29T00:25:45.953Z,20.6995
2023-04-29T00:26:47.605Z,20.7008
2023-04-29T00:27:49.279Z,20.6920
2023-04-29T00:28:52.542Z,20.6910
2023-04-29T00:29:52.929Z,20.6753
2023-04-29T00:30:54.188Z,20.6537
2023-04-29T00:31:55.856Z,20.6138
2023-04-29T00:32:57.547Z,20.5921
2023-04-29T00:33:59.127Z,20.5782
2023-04-29T00:35:00.841Z,20.5737
2023-04-29T00:36:02.388Z,20.5627
2023-04-29T00:37:04.096Z,20.5534
2023-04-29T00:38:05.695Z,20.5405
2023-04-29T00:39:07.630Z,20.5371
2023-04-29T00:40:08.988Z,20.5515
2023-04-29T00:41:10.664Z,20.5766
2023-04-29T00:42:12.234Z,20.5861
2023-04-29T00:43:13.923Z,20.5867
2023-04-29T00:44:15.564Z,20.5831
2023-04-29T00:45:17.240Z,20.5676
2023-04-29T00:46:18.878Z,20.5500
2023-04-29T00:47:20.465Z,20.5470
2023-04-29T00:48:22.046Z,20.5575
2023-04-29T00:49:23.717Z,20.5573
2023-04-29T00:50:26.047Z,20.5384
2023-04-29T00:51:26.938Z,20.5364
2023-04-29T00:52:28.555Z,20.5390
2023-04-29T00:53:30.277Z,20.5600
2023-04-29T00:54:31.852Z,20.5860
2023-04-29T00:55:33.579Z,20.6107
2023-04-29T00:56:35.155Z,20.6254
2023-04-29T00:57:36.814Z,20.6394
2023-04-29T00:58:38.454Z,20.6412
2023-04-29T00:59:40.108Z,20.6453
2023-04-29T01:00:41.794Z,20.6444
2023-04-29T01:01:43.404Z,20.6267
2023-04-29T01:02:45.120Z,20.6078
2023-04-29T01:03:46.853Z,20.5880
2023-04-29T01:04:48.307Z,20.5762
2023-04-29T01:05:49.993Z,20.5805
2023-04-29T01:06:51.607Z,20.5665
2023-04-29T01:07:53.269Z,20.5788
2023-04-29T01:08:54.833Z,20.5872
2023-04-29T01:09:56.507Z,20.5920
2023-04-29T01:10:58.145Z,20.6137
2023-04-29T01:12:00.568Z,20.6444
2023-04-29T01:13:01.462Z,20.6457
2023-04-29T01:14:03.094Z,20.6207
2023-04-29T01:15:04.707Z,20.5975
2023-04-29T01:16:06.562Z,20.5855
2023-04-29T01:17:08.021Z,20.5740
2023-04-29T01:18:09.745Z,20.5729
2023-04-29T01:19:11.424Z,20.5673
2023-04-29T01:20:13.138Z,20.5519
2023-04-29T01:21:14.699Z,20.5302
2023-04-29T01:22:16.454Z,20.5279
2023-04-29T01:23:18.052Z,20.5482
2023-04-29T01:24:21.583Z,20.5701
2023-04-29T01:25:21.230Z,20.5964
2023-04-29T01:26:22.954Z,20.6317
2023-04-29T01:27:24.559Z,20.6469
2023-04-29T01:28:26.258Z,20.6656
2023-04-29T01:29:27.774Z,20.6721
2023-04-29T01:30:29.472Z,20.6507
2023-04-29T01:31:31.140Z,20.6233
2023-04-29T01:32:34.636Z,20.5972
2023-04-29T01:33:34.389Z,20.5836
2023-04-29T01:34:36.028Z,20.5703
2023-04-29T01:35:37.659Z,20.5593
2023-04-29T01:36:39.344Z,20.5477
2023-04-29T01:37:41.052Z,20.5361
2023-04-29T01:38:43.178Z,20.5225
2023-04-29T01:39:44.231Z,20.5340
2023-04-29T01:40:45.914Z,20.5565
2023-04-29T01:41:47.514Z,20.5859
2023-04-29T01:42:49.668Z,20.6166
2023-04-29T01:43:50.863Z,20.6284
2023-04-29T01:44:52.492Z,20.6405
2023-04-29T01:45:54.100Z,20.6449
2023-04-29T01:46:55.807Z,20.6248
2023-04-29T01:47:57.508Z,20.6248
2023-04-29T01:48:59.135Z,20.6123
2023-04-29T01:50:00.668Z,20.5963
2023-04-29T01:51:02.338Z,20.5845
2023-04-29T01:52:03.953Z,20.5718
2023-04-29T01:53:05.659Z,20.5539
2023-04-29T01:54:07.259Z,20.5457
2023-04-29T01:55:08.923Z,20.5541
2023-04-29T01:56:10.554Z,20.5760
2023-04-29T01:57:12.171Z,20.5926
2023-04-29T01:58:13.839Z,20.6020
2023-04-29T01:59:15.526Z,20.5995
2023-04-29T02:00:17.107Z,20.5865
2023-04-29T02:01:18.836Z,20.5607
2023-04-29T02:02:20.500Z,20.5431
2023-04-29T02:03:22.198Z,20.5376
2023-04-29T02:04:23.790Z,20.5323
2023-04-29T02:05:25.335Z,20.5277
2023-04-29T02:06:27.033Z,20.5201
2023-04-29T02:07:28.631Z,20.5057
2023-04-29T02:08:30.366Z,20.5018
2023-04-29T02:09:31.937Z,20.4999
2023-04-29T02:10:33.594Z,20.5205
2023-04-29T02:11:35.175Z,20.5580
2023-04-29T02:12:36.903Z,20.6012
2023-04-29T02:13:38.540Z,20.6072
2023-04-29T02:14:40.212Z,20.6055
2023-04-29T02:15:41.864Z,20.5879
2023-04-29T02:16:43.591Z,20.5633
2023-04-29T02:17:45.085Z,20.5460
2023-04-29T02:18:46.766Z,20.5307
2023-04-29T02:19:48.650Z,20.5214
2023-04-29T02:20:50.060Z,20.5188
2023-04-29T02:21:51.653Z,20.4833
2023-04-29T02:22:53.357Z,20.4386
2023-04-29T02:23:55.018Z,20.3948
2023-04-29T02:24:56.674Z,20.3833
2023-04-29T02:25:58.240Z,20.4131
2023-04-29T02:26:59.916Z,20.4629
2023-04-29T02:28:01.520Z,20.5145
2023-04-29T02:29:03.225Z,20.5461
2023-04-29T02:30:04.906Z,20.5630
2023-04-29T02:31:06.504Z,20.5511
2023-04-29T02:32:08.151Z,20.5372
2023-04-29T02:33:09.912Z,20.5327
2023-04-29T02:34:11.465Z,20.5166
2023-04-29T02:35:13.096Z,20.4933
2023-04-29T02:36:14.679Z,20.4773
2023-04-29T02:37:16.376Z,20.4665
2023-04-29T02:38:17.971Z,20.4573
2023-04-29T02:39:20.672Z,20.4521
2023-04-29T02:40:21.314Z,20.4479
2023-04-29T02:41:22.938Z,20.4406
2023-04-29T02:42:24.546Z,20.4456
2023-04-29T02:43:26.204Z,20.4781
2023-04-29T02:44:27.927Z,20.5207
2023-04-29T02:45:29.657Z,20.5722
2023-04-29T02:46:31.109Z,20.5936
2023-04-29T02:47:32.816Z,20.6017
2023-04-29T02:48:34.397Z,20.5944
2023-04-29T02:49:36.238Z,20.5907
2023-04-29T02:50:38.194Z,20.5723
2023-04-29T02:51:39.391Z,20.5394
2023-04-29T02:52:41.007Z,20.5146
2023-04-29T02:53:42.664Z,20.4906
2023-04-29T02:54:44.295Z,20.4677
2023-04-29T02:55:46.181Z,20.4562
2023-04-29T02:56:47.564Z,20.4463
2023-04-29T02:57:49.235Z,20.4375
2023-04-29T02:58:50.876Z,20.4524
2023-04-29T02:59:52.843Z,20.4858
2023-04-29T03:00:54.225Z,20.5302
2023-04-29T03:01:55.813Z,20.5576
2023-04-29T03:02:57.741Z,20.5567
2023-04-29T03:03:59.281Z,20.5445
2023-04-29T03:05:00.743Z,20.5325
2023-04-29T03:06:02.473Z,20.5078
2023-04-29T03:07:04.068Z,20.4853
2023-04-29T03:08:05.675Z,20.4664
2023-04-29T03:09:07.314Z,20.4505
2023-04-29T03:10:09.007Z,20.4368
2023-04-29T03:11:10.620Z,20.4193
2023-04-29T03:12:12.256Z,20.4141
2023-04-29T03:13:13.893Z,20.4244
2023-04-29T03:14:15.523Z,20.4536
2023-04-29T03:15:17.201Z,20.4967
2023-04-29T03:16:18.930Z,20.5284
2023-04-29T03:17:20.443Z,20.5466
2023-04-29T03:18:22.155Z,20.5555
2023-04-29T03:19:23.765Z,20.5524
2023-04-29T03:20:25.489Z,20.5431
2023-04-29T03:21:27.081Z,20.5191
2023-04-29T03:22:28.748Z,20.4942
2023-04-29T03:23:30.314Z,20.4797
2023-04-29T03:24:32.623Z,20.4605
2023-04-29T03:25:33.681Z,20.4347
2023-04-29T03:26:35.327Z,20.4273
2023-04-29T03:27:36.974Z,20.4303
2023-04-29T03:28:38.566Z,20.4505
2023-04-29T03:29:40.206Z,20.4991
2023-04-29T03:30:41.906Z,20.5361
2023-04-29T03:31:43.641Z,20.5440
2023-04-29T03:32:45.179Z,20.5371
2023-04-29T03:33:46.778Z,20.5234
2023-04-29T03:34:48.494Z,20.4998
2023-04-29T03:35:50.127Z,20.4758
2023-04-29T03:36:51.795Z,20.4506
2023-04-29T03:37:53.456Z,20.4314
2023-04-29T03:38:55.058Z,20.4170
2023-04-29T03:39:56.627Z,20.4022
2023-04-29T03:40:58.724Z,20.3974
2023-04-29T03:42:00.040Z,20.3993
2023-04-29T03:43:01.641Z,20.4324
2023-04-29T03:44:03.267Z,20.4897
2023-04-29T03:45:04.903Z,20.5367
2023-04-29T03:46:06.547Z,20.5607
2023-04-29T03:47:08.727Z,20.5572
2023-04-29T03:48:09.801Z,20.5527
2023-04-29T03:49:11.554Z,20.5369
2023-04-29T03:50:13.076Z,20.5186
2023-04-29T03:51:14.834Z,20.4932
2023-04-29T03:52:16.395Z,20.4700
2023-04-29T03:53:18.029Z,20.4904
2023-04-29T03:54:19.641Z,20.5810
2023-04-29T03:55:21.321Z,20.7684
2023-04-29T03:56:23.008Z,20.9981
2023-04-29T03:57:24.657Z,21.2358
2023-04-29T03:58:26.250Z,21.4655
2023-04-29T03:59:27.930Z,21.6641
2023-04-29T04:00:29.514Z,21.8360
2023-04-29T04:01:31.254Z,21.9820
2023-04-29T04:02:32.923Z,22.1072
2023-04-29T04:03:34.569Z,22.2098
2023-04-29T04:04:36.284Z,22.3004
2023-04-29T04:05:37.746Z,22.3829
2023-04-29T04:06:39.438Z,22.4635
2023-04-29T04:07:41.128Z,22.5466
2023-04-29T04:08:42.654Z,22.6487
2023-04-29T04:09:44.386Z,22.7794
2023-04-29T04:10:45.968Z,22.9159
2023-04-29T04:11:47.716Z,23.0361
2023-04-29T04:12:49.301Z,23.1434
2023-04-29T04:13:50.909Z,23.2961
2023-04-29T04:14:52.647Z,23.4524
2023-04-29T04:15:54.295Z,23.5793
2023-04-29T04:16:55.979Z,23.6875
2023-04-29T04:17:57.583Z,23.7678
2023-04-29T04:18:59.217Z,23.8240
2023-04-29T04:20:00.845Z,23.8613
2023-04-29T04:21:02.541Z,23.8784
2023-04-29T04:22:04.158Z,23.8905
2023-04-29T04:23:05.818Z,23.9559
2023-04-29T04:24:07.382Z,24.1307
2023-04-29T04:25:09.201Z,24.3519
2023-04-29T04:26:10.674Z,24.5511
2023-04-29T04:27:12.428Z,24.7247
2023-04-29T04:28:14.003Z,24.8586
2023-04-29T04:29:15.641Z,24.9287
2023-04-29T04:30:17.283Z,24.9717
2023-04-29T04:31:19.035Z,25.0071
2023-04-29T04:32:20.636Z,25.0216
2023-04-29T04:33:23.217Z,25.0525
2023-04-29T04:34:24.682Z,25.0712
2023-04-29T04:35:25.523Z,25.0718
2023-04-29T04:36:27.137Z,25.1024
2023-04-29T04:37:28.855Z,25.1249
2023-04-29T04:38:30.456Z,25.1602
2023-04-29T04:39:32.707Z,25.1993
2023-04-29T04:40:33.730Z,25.3284
2023-04-29T04:41:35.465Z,25.4423
2023-04-29T04:42:37.059Z,25.5300
2023-04-29T04:43:38.709Z,25.5994
2023-04-29T04:44:40.317Z,25.6258
2023-04-29T04:45:42.061Z,25.6570
2023-04-29T04:46:43.612Z,25.6822
2023-04-29T04:47:45.327Z,25.7183
2023-04-29T04:48:46.894Z,25.7425
2023-04-29T04:49:48.577Z,25.7679
2023-04-29T04:50:50.194Z,25.8140
2023-04-29T04:51:51.869Z,25.8596
2023-04-29T04:52:53.506Z,25.9071
2023-04-29T04:53:55.164Z,25.9436
2023-04-29T04:54:56.760Z,25.9990
2023-04-29T04:55:58.448Z,26.0540
2023-04-29T04:57:00.038Z,26.0787
2023-04-29T04:58:01.833Z,26.0849
2023-04-29T04:59:03.347Z,26.1098
2023-04-29T05:00:05.027Z,26.1492
2023-04-29T05:01:06.714Z,26.1815
2023-04-29T05:02:09.265Z,26.2261
2023-04-29T05:03:10.346Z,26.2769
2023-04-29T05:04:11.769Z,26.3224
2023-04-29T05:05:13.265Z,26.3619
2023-04-29T05:06:14.926Z,26.4163
2023-04-29T05:07:16.575Z,26.4633
2023-04-29T05:08:18.737Z,26.4951
2023-04-29T05:09:19.782Z,26.5347
2023-04-29T05:10:21.530Z,26.5751
2023-04-29T05:11:23.086Z,26.6157
2023-04-29T05:12:24.755Z,26.6618
2023-04-29T05:13:27.205Z,26.6913
2023-04-29T05:14:28.056Z,26.7275
2023-04-29T05:15:29.666Z,26.7550
2023-04-29T05:16:32.278Z,26.5763
2023-04-29T05:17:32.988Z,26.2197
2023-04-29T05:18:34.656Z,25.9506
2023-04-29T05:19:36.284Z,25.8145
2023-04-29T05:20:38.007Z,25.8270
2023-04-29T05:21:39.604Z,25.8935
2023-04-29T05:22:41.237Z,26.2121
2023-04-29T05:23:43.291Z,26.6186
2023-04-29T05:24:44.548Z,26.9648
2023-04-29T05:25:46.129Z,27.2154
2023-04-29T05:26:47.746Z,27.3933
2023-04-29T05:27:49.359Z,27.5024
2023-04-29T05:28:51.071Z,27.5598
2023-04-29T05:29:52.918Z,27.6001
2023-04-29T05:30:54.400Z,27.6566
2023-04-29T05:31:55.922Z,27.7143
2023-04-29T05:32:57.741Z,27.7079
2023-04-29T05:33:59.695Z,27.6196
2023-04-29T05:35:00.953Z,27.5030
2023-04-29T05:36:02.526Z,27.3860
2023-04-29T05:37:04.216Z,27.2754
2023-04-29T05:38:06.665Z,27.1762
2023-04-29T05:39:07.547Z,27.0804
2023-04-29T05:40:09.080Z,26.9816
2023-04-29T05:41:10.762Z,26.8976
2023-04-29T05:42:12.459Z,26.8219
2023-04-29T05:43:14.076Z,26.7473
2023-04-29T05:44:16.193Z,26.6814
2023-04-29T05:45:17.366Z,26.6263
2023-04-29T05:46:19.017Z,26.5594
2023-04-29T05:47:20.679Z,26.4947
2023-04-29T05:48:23.153Z,26.4401
2023-04-29T05:49:24.025Z,26.3895
2023-04-29T05:50:25.665Z,26.3046
2023-04-29T05:51:27.302Z,25.9650
2023-04-29T05:52:28.856Z,25.6507
2023-04-29T05:53:30.529Z,25.4755
2023-04-29T05:54:32.141Z,25.3672
2023-04-29T05:55:34.274Z,25.2827
2023-04-29T05:56:35.439Z,25.2959
2023-04-29T05:57:37.104Z,25.4517
2023-04-29T05:58:38.724Z,25.6207
2023-04-29T05:59:40.426Z,25.7717
2023-04-29T06:00:42.106Z,25.8657
2023-04-29T06:01:43.689Z,25.9092
2023-04-29T06:02:57.278Z,25.9282
2023-04-29T06:03:47.149Z,25.8927
2023-04-29T06:04:48.852Z,25.8494
2023-04-29T06:05:50.501Z,25.8027
2023-04-29T06:06:51.931Z,25.7690
2023-04-29T06:07:53.590Z,25.7320
2023-04-29T06:08:55.216Z,25.6780
2023-04-29T06:09:56.994Z,25.6221
2023-04-29T06:10:58.557Z,25.5874
2023-04-29T06:12:00.219Z,25.5721
2023-04-29T06:13:01.753Z,25.5545
2023-04-29T06:14:03.523Z,25.5340
2023-04-29T06:15:05.204Z,25.5117
2023-04-29T06:16:06.949Z,25.5029
2023-04-29T06:17:08.464Z,25.4901
2023-04-29T06:18:10.188Z,25.4712
2023-04-29T06:19:12.503Z,25.4701
2023-04-29T06:20:13.934Z,25.4951
2023-04-29T06:21:15.160Z,25.5685
2023-04-29T06:22:16.741Z,25.6767
2023-04-29T06:23:18.417Z,25.7868
2023-04-29T06:24:19.973Z,25.8872
2023-04-29T06:25:21.744Z,26.0002
2023-04-29T06:26:23.408Z,26.1161
2023-04-29T06:27:25.013Z,26.2201
2023-04-29T06:28:26.607Z,26.3168
2023-04-29T06:29:28.316Z,26.4162
2023-04-29T06:30:29.924Z,26.5206
2023-04-29T06:31:32.847Z,26.6207
2023-04-29T06:32:33.163Z,26.7183
2023-04-29T06:33:34.941Z,26.7020
2023-04-29T06:34:36.453Z,26.4574
2023-04-29T06:35:38.189Z,26.3453
2023-04-29T06:36:39.876Z,26.3002
2023-04-29T06:37:41.495Z,26.3440
2023-04-29T06:38:43.150Z,26.4516
2023-04-29T06:39:44.820Z,26.6574
2023-04-29T06:40:46.396Z,26.9868
2023-04-29T06:41:48.975Z,27.2770
2023-04-29T06:42:49.725Z,27.5011
2023-04-29T06:43:51.476Z,27.6570
2023-04-29T06:44:52.962Z,27.7681
2023-04-29T06:45:54.674Z,27.8640
2023-04-29T06:46:56.349Z,27.9373
2023-04-29T06:47:58.076Z,28.0015
2023-04-29T06:48:59.567Z,28.0351
2023-04-29T06:50:01.248Z,28.0827
2023-04-29T06:51:02.915Z,28.1464
2023-04-29T06:52:04.545Z,28.1956
2023-04-29T06:53:06.195Z,28.2485
2023-04-29T06:54:08.160Z,28.2952
2023-04-29T06:55:10.475Z,28.3505
2023-04-29T06:56:11.990Z,28.3910
2023-04-29T06:57:12.757Z,28.4002
2023-04-29T06:58:14.397Z,28.1887
2023-04-29T06:59:16.039Z,27.7932
2023-04-29T07:00:17.684Z,27.5353
2023-04-29T07:01:19.456Z,27.5785
2023-04-29T07:02:21.000Z,27.7846
2023-04-29T07:03:23.110Z,27.9991
2023-04-29T07:04:24.285Z,28.1569
2023-04-29T07:05:25.982Z,28.2643
2023-04-29T07:06:27.516Z,28.3600
2023-04-29T07:07:29.252Z,28.4610
2023-04-29T07:08:30.876Z,28.4902
2023-04-29T07:09:32.524Z,28.2464
2023-04-29T07:10:34.169Z,28.2079
2023-04-29T07:11:35.819Z,28.2886
2023-04-29T07:12:37.592Z,28.3428
2023-04-29T07:13:39.167Z,28.2452
2023-04-29T07:14:40.751Z,27.5332
2023-04-29T07:15:43.449Z,27.5048
2023-04-29T07:16:44.017Z,27.7843
2023-04-29T07:17:45.690Z,28.0368
2023-04-29T07:18:47.289Z,28.2107
2023-04-29T07:19:48.985Z,28.3478
2023-04-29T07:20:50.594Z,28.3791
2023-04-29T07:21:52.244Z,28.2057
2023-04-29T07:22:53.926Z,28.2951
2023-04-29T07:23:55.613Z,28.3798
2023-04-29T07:24:57.238Z,28.4470
2023-04-29T07:25:58.801Z,28.4234
2023-04-29T07:27:00.487Z,28.2778
2023-04-29T07:28:02.146Z,28.0556
2023-04-29T07:29:03.834Z,27.7506
2023-04-29T07:30:05.470Z,27.5418
2023-04-29T07:31:07.100Z,27.5642
2023-04-29T07:32:09.273Z,27.6476
2023-04-29T07:33:10.382Z,27.7260
2023-04-29T07:34:12.088Z,27.7690
2023-04-29T07:35:13.745Z,27.8301
2023-04-29T07:36:15.294Z,27.8646
2023-04-29T07:37:17.006Z,27.8689
2023-04-29T07:38:18.597Z,27.8860
2023-04-29T07:39:20.350Z,27.8939
2023-04-29T07:40:21.934Z,27.8822
2023-04-29T07:41:23.600Z,27.8704
2023-04-29T07:42:25.213Z,27.8437
2023-04-29T07:43:26.888Z,27.8192
2023-04-29T07:44:28.532Z,27.8210
2023-04-29T07:45:30.207Z,27.8391
2023-04-29T07:46:31.828Z,27.8369
2023-04-29T07:47:34.345Z,27.8246
2023-04-29T07:48:35.085Z,27.8153
2023-04-29T07:49:36.778Z,27.8194
2023-04-29T07:50:38.409Z,27.8083
2023-04-29T07:51:40.038Z,27.7968
2023-04-29T07:52:41.677Z,27.7926
2023-04-29T07:53:43.367Z,27.7897
2023-04-29T07:54:45.076Z,27.7712
2023-04-29T07:55:46.675Z,27.7576
2023-04-29T07:56:48.284Z,27.7556
2023-04-29T07:57:49.940Z,27.7503
2023-04-29T07:58:51.643Z,27.7458
2023-04-29T07:59:53.316Z,27.7519
2023-04-29T08:00:54.934Z,27.7594
2023-04-29T08:01:56.569Z,27.7450
2023-04-29T08:02:58.255Z,27.7407
2023-04-29T08:04:00.084Z,27.7310
2023-04-29T08:05:02.083Z,27.7038
2023-04-29T08:06:03.231Z,27.6190
2023-04-29T08:07:04.762Z,27.4924
2023-04-29T08:08:06.430Z,27.3535
2023-04-29T08:09:08.028Z,27.2449
2023-04-29T08:10:09.778Z,27.1644
2023-04-29T08:11:11.390Z,27.2178
2023-04-29T08:12:13.053Z,27.2732
2023-04-29T08:13:14.655Z,27.3384
2023-04-29T08:14:16.318Z,27.3809
2023-04-29T08:15:17.958Z,27.4064
2023-04-29T08:16:19.805Z,27.4313
2023-04-29T08:17:21.376Z,27.4686
2023-04-29T08:18:23.051Z,27.4942
2023-04-29T08:19:24.587Z,27.5019
2023-04-29T08:20:26.311Z,27.4928
2023-04-29T08:21:27.933Z,27.4128
2023-04-29T08:22:29.560Z,27.3351
2023-04-29T08:23:31.147Z,27.2283
2023-04-29T08:24:32.868Z,27.1798
2023-04-29T08:25:34.490Z,27.1209
2023-04-29T08:26:36.185Z,27.0685
2023-04-29T08:27:37.769Z,26.9167
2023-04-29T08:28:39.727Z,26.8565
2023-04-29T08:29:41.025Z,26.9626
2023-04-29T08:30:42.941Z,27.0936
2023-04-29T08:31:44.483Z,27.2225
2023-04-29T08:32:46.106Z,27.3421
2023-04-29T08:33:47.655Z,27.4279
2023-04-29T08:34:49.375Z,27.4803
2023-04-29T08:35:50.998Z,27.4969
2023-04-29T08:36:52.724Z,27.4946
2023-04-29T08:37:54.273Z,27.4962
2023-04-29T08:38:55.993Z,27.4361
2023-04-29T08:39:57.649Z,27.2646
2023-04-29T08:40:59.448Z,27.0962
2023-04-29T08:42:00.945Z,27.0359
2023-04-29T08:43:02.579Z,27.0841
2023-04-29T08:44:04.167Z,27.1736
2023-04-29T08:45:06.353Z,27.2801
2023-04-29T08:46:07.548Z,27.3642
2023-04-29T08:47:09.191Z,27.4023
2023-04-29T08:48:10.891Z,27.3057
2023-04-29T08:49:12.441Z,27.0392
2023-04-29T08:50:14.035Z,26.9277
2023-04-29T08:51:16.045Z,26.9754
2023-04-29T08:52:17.389Z,27.1033
2023-04-29T08:53:19.017Z,27.2904
2023-04-29T08:54:20.619Z,27.4980
2023-04-29T08:55:22.376Z,27.6259
2023-04-29T08:56:24.590Z,27.5174
2023-04-29T08:57:25.700Z,27.4521
2023-04-29T08:58:27.258Z,27.4683
2023-04-29T08:59:28.851Z,27.3531
2023-04-29T09:00:30.490Z,27.3156
2023-04-29T09:01:32.214Z,27.2284
2023-04-29T09:02:33.794Z,26.9718
2023-04-29T09:03:35.598Z,26.9780
2023-04-29T09:04:37.205Z,27.0213
2023-04-29T09:05:38.773Z,27.0090
2023-04-29T09:06:40.426Z,26.9723
2023-04-29T09:07:42.042Z,26.9648
2023-04-29T09:08:43.683Z,27.0107
2023-04-29T09:09:45.363Z,27.0930
2023-04-29T09:10:46.934Z,27.1898
2023-04-29T09:11:48.704Z,27.2762
2023-04-29T09:12:50.289Z,27.3648
2023-04-29T09:13:51.945Z,27.4367
2023-04-29T09:14:53.875Z,27.4762
2023-04-29T09:15:55.193Z,27.4131
2023-04-29T09:16:56.975Z,27.4009
2023-04-29T09:17:58.552Z,27.4228
2023-04-29T09:19:00.199Z,27.4225
2023-04-29T09:20:01.784Z,27.4591
2023-04-29T09:21:03.475Z,27.4763
2023-04-29T09:22:05.163Z,27.4750
2023-04-29T09:23:06.765Z,27.4858
2023-04-29T09:24:08.427Z,27.4792
2023-04-29T09:25:10.062Z,27.4846
2023-04-29T09:26:11.726Z,27.4654
2023-04-29T09:27:13.390Z,27.4987
2023-04-29T09:28:15.012Z,27.5456
2023-04-29T09:29:16.623Z,27.5167
2023-04-29T09:30:18.333Z,27.5034
2023-04-29T09:31:19.999Z,27.5321
2023-04-29T09:32:21.787Z,27.5156
2023-04-29T09:33:23.836Z,27.4820
2023-04-29T09:34:24.939Z,27.5121
2023-04-29T09:35:26.507Z,27.5817
2023-04-29T09:36:28.240Z,27.6365
2023-04-29T09:37:29.941Z,27.6830
2023-04-29T09:38:31.525Z,27.7299
2023-04-29T09:39:33.159Z,27.7457
2023-04-29T09:40:43.407Z,27.6703
2023-04-29T09:41:36.458Z,27.5205
2023-04-29T09:42:38.370Z,27.4450
2023-04-29T09:43:39.759Z,27.3827
2023-04-29T09:44:41.350Z,27.3846
2023-04-29T09:45:43.100Z,27.4329
2023-04-29T09:46:44.675Z,27.5215
2023-04-29T09:47:46.430Z,27.5964
2023-04-29T09:48:48.001Z,27.6255
2023-04-29T09:49:49.696Z,27.5923
2023-04-29T09:50:51.253Z,27.6332
2023-04-29T09:51:52.970Z,27.6032
2023-04-29T09:52:54.629Z,27.5522
2023-04-29T09:53:56.308Z,27.5306
2023-04-29T09:54:57.838Z,27.4834
2023-04-29T09:55:59.569Z,27.4563
2023-04-29T09:57:01.215Z,27.4348
2023-04-29T09:58:03.029Z,27.4417
2023-04-29T09:59:04.486Z,27.4079
2023-04-29T10:00:06.161Z,27.3863
2023-04-29T10:01:07.845Z,27.4041
2023-04-29T10:02:09.497Z,27.3595
2023-04-29T10:03:11.206Z,27.3314
2023-04-29T10:04:12.842Z,27.3261
2023-04-29T10:05:14.447Z,27.3120
2023-04-29T10:06:16.032Z,27.1913
2023-04-29T10:07:17.885Z,27.0084
2023-04-29T10:08:19.359Z,27.0162
2023-04-29T10:09:21.034Z,27.0648
2023-04-29T10:10:22.661Z,27.1846
2023-04-29T10:11:24.329Z,27.3069
2023-04-29T10:12:25.909Z,27.3994
2023-04-29T10:13:27.677Z,27.4139
2023-04-29T10:14:29.227Z,27.3896
2023-04-29T10:15:30.936Z,27.1432
2023-04-29T10:16:32.595Z,27.0165
2023-04-29T10:17:34.193Z,27.0797
2023-04-29T10:18:35.958Z,27.1063
2023-04-29T10:19:37.478Z,26.8986
2023-04-29T10:20:39.154Z,26.8296
2023-04-29T10:21:40.776Z,26.9096
2023-04-29T10:22:42.472Z,27.0303
2023-04-29T10:23:44.146Z,27.1518
2023-04-29T10:24:45.844Z,27.1955
2023-04-29T10:25:47.360Z,27.1761
2023-04-29T10:26:49.077Z,27.1726
2023-04-29T10:27:50.680Z,27.1631
2023-04-29T10:28:52.448Z,27.1863
2023-04-29T10:29:54.008Z,27.2878
2023-04-29T10:30:55.710Z,27.4093
2023-04-29T10:31:57.242Z,27.4832
2023-04-29T10:33:01.054Z,27.5603
2023-04-29T10:34:00.573Z,27.6349
2023-04-29T10:35:04.848Z,27.7003
2023-04-29T10:36:03.878Z,27.7425
2023-04-29T10:37:05.509Z,27.7880
2023-04-29T10:38:07.155Z,27.8539
2023-04-29T10:39:08.844Z,27.9014
2023-04-29T10:40:10.412Z,27.9299
2023-04-29T10:41:12.158Z,27.8699
2023-04-29T10:42:13.774Z,27.7052
2023-04-29T10:43:15.410Z,27.6144
2023-04-29T10:44:17.080Z,27.5785
2023-04-29T10:45:18.764Z,27.5652
2023-04-29T10:46:20.397Z,27.5538
2023-04-29T10:47:22.020Z,27.5023
2023-04-29T10:48:23.691Z,27.4558
2023-04-29T10:49:25.896Z,27.4428
2023-04-29T10:50:27.382Z,27.4779
2023-04-29T10:51:28.598Z,27.5427
2023-04-29T10:52:30.330Z,27.6012
2023-04-29T10:53:31.928Z,27.6488
2023-04-29T10:54:34.187Z,27.7322
2023-04-29T10:55:35.244Z,27.8158
2023-04-29T10:56:36.895Z,27.7705
2023-04-29T10:57:38.558Z,27.6285
2023-04-29T10:58:40.189Z,27.6719
2023-04-29T10:59:41.898Z,27.7330
2023-04-29T11:00:43.496Z,27.7846
2023-04-29T11:01:45.168Z,27.7471
2023-04-29T11:02:46.789Z,27.8004
2023-04-29T11:03:48.751Z,27.8599
2023-04-29T11:04:50.224Z,27.8748
2023-04-29T11:05:51.799Z,27.9213
2023-04-29T11:06:53.366Z,27.9852
2023-04-29T11:07:55.033Z,28.0435
2023-04-29T11:08:56.668Z,28.0011
2023-04-29T11:09:58.374Z,27.9392
2023-04-29T11:11:00.032Z,27.8180
2023-04-29T11:12:02.472Z,27.7660
2023-04-29T11:13:03.283Z,27.6901
2023-04-29T11:14:04.967Z,27.5809
2023-04-29T11:15:06.607Z,27.5302
2023-04-29T11:16:08.367Z,27.4408
2023-04-29T11:17:09.970Z,27.1950
2023-04-29T11:18:11.698Z,26.8710
2023-04-29T11:19:13.245Z,26.9465
2023-04-29T11:20:14.808Z,27.0431
2023-04-29T11:21:16.539Z,27.0359
2023-04-29T11:22:18.351Z,27.1382
2023-04-29T11:23:19.821Z,27.3526
2023-04-29T11:24:21.474Z,27.5370
2023-04-29T11:25:23.111Z,27.6727
2023-04-29T11:26:24.778Z,27.7921
2023-04-29T11:27:26.489Z,27.9366
2023-04-29T11:28:28.029Z,28.0660
2023-04-29T11:29:29.800Z,28.1934
2023-04-29T11:30:31.330Z,28.2848
2023-04-29T11:31:33.106Z,28.2351
2023-04-29T11:32:34.776Z,28.1462
2023-04-29T11:33:36.354Z,28.1014
2023-04-29T11:34:38.015Z,28.1307
2023-04-29T11:35:40.218Z,28.1146
2023-04-29T11:36:41.280Z,27.9704
2023-04-29T11:37:43.036Z,27.3346
2023-04-29T11:38:44.564Z,27.1798
2023-04-29T11:39:46.399Z,27.3523
2023-04-29T11:40:47.834Z,27.5139
2023-04-29T11:41:51.175Z,27.7033
2023-04-29T11:42:51.165Z,27.6992
2023-04-29T11:43:52.862Z,27.6525
2023-04-29T11:44:54.758Z,27.5951
2023-04-29T11:45:56.207Z,27.3127
2023-04-29T11:46:57.780Z,27.0735
2023-04-29T11:47:59.497Z,26.8901
2023-04-29T11:49:01.054Z,26.8417
2023-04-29T11:50:02.787Z,27.0570
2023-04-29T11:51:04.377Z,27.2650
2023-04-29T11:52:06.053Z,27.4435
2023-04-29T11:53:07.705Z,27.4981
2023-04-29T11:54:09.338Z,27.4324
2023-04-29T11:55:11.042Z,27.3023
2023-04-29T11:56:12.609Z,27.2702
2023-04-29T11:57:14.310Z,27.4781
2023-04-29T11:58:15.918Z,27.6707
2023-04-29T11:59:17.590Z,27.6089
2023-04-29T12:00:19.243Z,26.8161
2023-04-29T12:01:20.905Z,26.1500
2023-04-29T12:02:23.784Z,26.2720
2023-04-29T12:03:24.514Z,26.6352
2023-04-29T12:04:25.962Z,27.0424
2023-04-29T12:05:27.608Z,27.4010
2023-04-29T12:06:29.173Z,27.2620
2023-04-29T12:07:30.839Z,26.9497
2023-04-29T12:08:32.498Z,26.7518
2023-04-29T12:09:34.226Z,26.8055
2023-04-29T12:10:35.737Z,26.9135
2023-04-29T12:11:37.497Z,27.2023
2023-04-29T12:12:39.107Z,27.5297
2023-04-29T12:13:40.798Z,27.7929
2023-04-29T12:14:42.367Z,27.9516
2023-04-29T12:15:44.052Z,27.9697
2023-04-29T12:16:45.669Z,27.7664
2023-04-29T12:17:47.374Z,27.4206
2023-04-29T12:18:49.058Z,27.3665
2023-04-29T12:19:50.617Z,27.4991
2023-04-29T12:20:52.359Z,27.5872
2023-04-29T12:21:54.025Z,27.6755
2023-04-29T12:22:55.688Z,27.8491
2023-04-29T12:23:57.331Z,27.9713
2023-04-29T12:24:59.040Z,27.9339